Time;durP1;ratioP1;P1;durP2;ratioP2;P2;SDS_P1;SDS_P2;PMS_P1;PMS_P2;Temp;Humidity;BMP_temperature;BMP_pressure;BME280_temperature;BME280_humidity;BME280_pressure;Samples;Min_cycle;Max_cycle;Signal;HPM_P1;HPM_P2
2022/03/10 00:01:04;0.00;0.00;0.62;0.00;0.00;0.62;3.90;2.50;;;25.40;20.80;;;;;;2254063;61;20364;-63
2022/03/10 00:03:49;0.00;0.00;0.62;0.00;0.00;0.62;3.30;3.00;;;25.40;20.70;;;;;;2253905;61;20428;-62
2022/03/10 00:06:33;0.00;0.00;0.62;0.00;0.00;0.62;3.40;2.90;;;25.40;20.50;;;;;;2253860;61;20399;-65
2022/03/10 00:09:19;0.00;0.00;0.62;0.00;0.00;0.62;4.30;3.80;;;25.30;20.30;;;;;;2253784;61;20371;-67
2022/03/10 00:12:05;0.00;0.00;0.62;0.00;0.00;0.62;5.20;4.63;;;25.30;20.10;;;;;;2253308;61;20356;-62
2022/03/10 00:14:50;0.00;0.00;0.62;0.00;0.00;0.62;6.13;4.50;;;25.30;20.00;;;;;;2254070;61;20394;-61
2022/03/10 00:17:34;0.00;0.00;0.62;0.00;0.00;0.62;4.40;4.00;;;25.30;19.90;;;;;;2253811;61;20411;-63
2022/03/10 00:20:21;0.00;0.00;0.62;0.00;0.00;0.62;7.30;4.20;;;25.20;19.80;;;;;;2253400;61;20359;-62
2022/03/10 00:23:05;0.00;0.00;0.62;0.00;0.00;0.62;7.13;4.40;;;25.20;19.70;;;;;;2254043;61;20488;-63
2022/03/10 00:25:51;0.00;0.00;0.62;0.00;0.00;0.62;4.10;3.57;;;25.20;19.70;;;;;;2253513;61;20364;-66
2022/03/10 00:28:36;0.00;0.00;0.62;0.00;0.00;0.62;4.90;3.93;;;25.10;19.60;;;;;;2253845;61;20720;-63
2022/03/10 00:31:20;0.00;0.00;0.62;0.00;0.00;0.62;5.00;4.43;;;25.10;19.60;;;;;;2253810;61;20468;-64
2022/03/10 00:34:05;0.00;0.00;0.62;0.00;0.00;0.62;5.13;4.63;;;25.10;20.10;;;;;;2253210;61;20419;-64
2022/03/10 00:36:50;0.00;0.00;0.62;0.00;0.00;0.62;6.80;3.90;;;25.10;19.50;;;;;;2254142;61;20763;-65
2022/03/10 00:39:34;0.00;0.00;0.62;0.00;0.00;0.62;5.13;4.30;;;25.00;19.50;;;;;;2253694;61;20495;-63
2022/03/10 00:42:20;0.00;0.00;0.62;0.00;0.00;0.62;5.40;4.50;;;25.00;19.40;;;;;;2253299;61;20403;-64
2022/03/10 00:45:06;0.00;0.00;0.62;0.00;0.00;0.62;5.60;5.03;;;25.00;19.40;;;;;;2254258;61;20367;-61
2022/03/10 00:47:52;0.00;0.00;0.62;0.00;0.00;0.62;5.20;4.70;;;25.00;19.40;;;;;;2253176;61;20423;-65
2022/03/10 00:50:36;0.00;0.00;0.62;0.00;0.00;0.62;5.03;4.53;;;24.90;19.30;;;;;;2253905;61;20456;-63
2022/03/10 00:53:21;0.00;0.00;0.62;0.00;0.00;0.62;6.97;4.87;;;24.90;19.40;;;;;;2253559;61;20763;-64
2022/03/10 00:56:06;0.00;0.00;0.62;0.00;0.00;0.62;4.67;4.27;;;24.80;19.30;;;;;;2252805;61;20440;-61
2022/03/10 00:58:52;0.00;0.00;0.62;0.00;0.00;0.62;5.10;4.50;;;24.80;19.30;;;;;;2254051;61;20719;-66
2022/03/10 01:01:36;0.00;0.00;0.62;0.00;0.00;0.62;5.10;4.60;;;24.70;19.30;;;;;;2253634;61;20379;-61
2022/03/10 01:04:21;0.00;0.00;0.62;0.00;0.00;0.62;4.80;4.40;;;24.70;19.20;;;;;;2253250;61;20383;-65
2022/03/10 01:07:06;0.00;0.00;0.62;0.00;0.00;0.62;5.60;5.10;;;24.70;19.30;;;;;;2254087;61;20363;-62
2022/03/10 01:09:51;0.00;0.00;0.62;0.00;0.00;0.62;4.80;4.30;;;24.70;19.30;;;;;;2253320;61;20423;-65
2022/03/10 01:12:36;0.00;0.00;0.62;0.00;0.00;0.62;5.30;4.43;;;24.60;19.20;;;;;;2253579;61;20387;-64
2022/03/10 01:15:25;0.00;0.00;0.62;0.00;0.00;0.62;4.83;4.33;;;24.60;19.20;;;;;;2253712;61;20380;-62
2022/03/10 01:18:09;0.00;0.00;0.62;0.00;0.00;0.62;5.13;4.60;;;24.60;19.20;;;;;;2253465;61;20363;-66
2022/03/10 01:20:54;0.00;0.00;0.62;0.00;0.00;0.62;5.50;4.40;;;24.50;19.10;;;;;;2254000;61;20398;-65
2022/03/10 01:23:39;0.00;0.00;0.62;0.00;0.00;0.62;5.67;4.73;;;24.50;19.10;;;;;;2253469;61;20752;-63
2022/03/10 01:26:24;0.00;0.00;0.62;0.00;0.00;0.62;5.70;4.70;;;24.50;19.10;;;;;;2253289;61;20399;-61
2022/03/10 01:29:08;0.00;0.00;0.62;0.00;0.00;0.62;4.90;4.50;;;24.40;19.00;;;;;;2253950;61;20376;-63
2022/03/10 01:31:54;0.00;0.00;0.62;0.00;0.00;0.62;4.83;4.33;;;24.40;19.00;;;;;;2253408;61;20495;-64
2022/03/10 01:34:39;0.00;0.00;0.62;0.00;0.00;0.62;5.87;5.17;;;24.40;19.00;;;;;;2253584;61;20391;-61
2022/03/10 01:37:23;0.00;0.00;0.62;0.00;0.00;0.62;5.90;5.30;;;24.30;18.90;;;;;;2253838;61;20402;-63
2022/03/10 01:40:11;0.00;0.00;0.62;0.00;0.00;0.62;5.53;5.03;;;24.30;18.90;;;;;;2253578;61;20363;-64
2022/03/10 01:42:56;0.00;0.00;0.62;0.00;0.00;0.62;5.20;4.63;;;24.30;19.00;;;;;;2253789;61;20448;-65
2022/03/10 01:45:41;0.00;0.00;0.62;0.00;0.00;0.62;5.40;4.90;;;24.20;18.90;;;;;;2253429;61;20731;-65
2022/03/10 01:48:26;0.00;0.00;0.62;0.00;0.00;0.62;6.27;5.67;;;24.20;18.90;;;;;;2253251;61;20368;-62
2022/03/10 01:51:11;0.00;0.00;0.62;0.00;0.00;0.62;4.67;4.17;;;24.20;18.90;;;;;;2253728;61;20364;-65
2022/03/10 01:53:56;0.00;0.00;0.62;0.00;0.00;0.62;7.50;5.20;;;24.10;18.90;;;;;;2253426;61;20608;-65
2022/03/10 01:56:41;0.00;0.00;0.62;0.00;0.00;0.62;5.33;4.83;;;24.10;18.90;;;;;;2253709;61;20395;-64
2022/03/10 01:59:26;0.00;0.00;0.62;0.00;0.00;0.62;5.17;4.67;;;24.10;18.90;;;;;;2253826;61;20384;-62
2022/03/10 02:02:11;0.00;0.00;0.62;0.00;0.00;0.62;5.70;4.60;;;24.00;18.90;;;;;;2252738;61;20368;-62
2022/03/10 02:04:57;0.00;0.00;0.62;0.00;0.00;0.62;5.80;4.93;;;24.00;18.90;;;;;;2253397;61;20363;-67
2022/03/10 02:10:16;0.00;0.00;0.62;0.00;0.00;0.62;5.80;5.20;;;24.00;18.80;;;;;;2253327;61;20479;-64
2022/03/10 02:10:52;0.00;0.00;0.62;0.00;0.00;0.62;5.03;4.57;;;23.90;18.80;;;;;;2253211;61;20407;-66
2022/03/10 02:13:37;0.00;0.00;0.62;0.00;0.00;0.62;5.80;5.20;;;23.90;18.80;;;;;;2253707;61;20395;-63
2022/03/10 02:19:25;0.00;0.00;0.62;0.00;0.00;0.62;4.83;4.40;;;23.80;18.70;;;;;;2253420;61;20368;-62
2022/03/10 02:22:13;0.00;0.00;0.62;0.00;0.00;0.62;6.90;5.90;;;23.80;18.70;;;;;;2253303;61;20749;-65
2022/03/10 02:24:59;0.00;0.00;0.62;0.00;0.00;0.62;6.27;4.37;;;23.80;18.80;;;;;;2253199;61;20380;-63
2022/03/10 02:27:49;0.00;0.00;0.62;0.00;0.00;0.62;6.70;5.20;;;23.70;18.70;;;;;;2253600;61;20540;-62
2022/03/10 02:30:35;0.00;0.00;0.62;0.00;0.00;0.62;6.33;5.33;;;23.70;18.70;;;;;;2253498;61;20356;-61
2022/03/10 02:33:20;0.00;0.00;0.62;0.00;0.00;0.62;5.20;4.70;;;23.70;18.70;;;;;;2252637;61;20396;-61
2022/03/10 02:36:05;0.00;0.00;0.62;0.00;0.00;0.62;5.70;5.07;;;23.60;18.70;;;;;;2253682;61;20355;-60
2022/03/10 02:38:51;0.00;0.00;0.62;0.00;0.00;0.62;5.83;4.73;;;23.60;18.70;;;;;;2253158;61;20368;-62
2022/03/10 02:41:36;0.00;0.00;0.62;0.00;0.00;0.62;5.53;5.00;;;23.60;18.70;;;;;;2253281;61;20442;-63
2022/03/10 02:44:21;0.00;0.00;0.62;0.00;0.00;0.62;6.10;5.50;;;23.50;18.60;;;;;;2253525;61;20476;-61
2022/03/10 02:47:05;0.00;0.00;0.62;0.00;0.00;0.62;6.20;5.57;;;23.50;18.60;;;;;;2253095;61;20407;-63
2022/03/10 02:49:50;0.00;0.00;0.62;0.00;0.00;0.62;5.67;4.83;;;23.50;18.60;;;;;;2253711;61;20411;-66
2022/03/10 02:52:35;0.00;0.00;0.62;0.00;0.00;0.62;6.60;4.50;;;23.50;18.60;;;;;;2253265;61;20518;-65
2022/03/10 02:55:21;0.00;0.00;0.62;0.00;0.00;0.62;6.30;4.80;;;23.40;18.50;;;;;;2253138;61;20388;-64
2022/03/10 02:58:06;0.00;0.00;0.62;0.00;0.00;0.62;5.43;4.93;;;23.40;18.50;;;;;;2253789;61;20692;-62
2022/03/10 03:00:50;0.00;0.00;0.62;0.00;0.00;0.62;5.80;4.97;;;23.40;18.60;;;;;;2253152;61;20399;-64
2022/03/10 03:03:36;0.00;0.00;0.62;0.00;0.00;0.62;5.27;4.77;;;23.40;18.60;;;;;;2253319;61;20427;-63
2022/03/10 03:06:21;0.00;0.00;0.62;0.00;0.00;0.62;5.00;4.60;;;23.30;18.50;;;;;;2253451;61;20407;-63
2022/03/10 03:09:05;0.00;0.00;0.62;0.00;0.00;0.62;6.93;5.10;;;23.30;18.50;;;;;;2253249;61;20375;-63
2022/03/10 03:11:51;0.00;0.00;0.62;0.00;0.00;0.62;4.83;4.40;;;23.30;18.60;;;;;;2253596;61;20367;-67
2022/03/10 03:14:36;0.00;0.00;0.62;0.00;0.00;0.62;5.30;4.80;;;23.20;18.50;;;;;;2253994;61;20763;-62
2022/03/10 03:17:20;0.00;0.00;0.62;0.00;0.00;0.62;6.20;5.60;;;23.20;18.50;;;;;;2253526;61;20436;-67
2022/03/10 03:20:09;0.00;0.00;0.62;0.00;0.00;0.62;6.00;5.40;;;23.20;19.10;;;;;;2254342;61;20355;-64
2022/03/10 03:22:53;0.00;0.00;0.62;0.00;0.00;0.62;5.17;4.67;;;23.20;18.50;;;;;;2253852;61;20610;-63
2022/03/10 03:25:38;0.00;0.00;0.62;0.00;0.00;0.62;5.70;5.07;;;23.10;18.50;;;;;;2253983;61;20736;-64
2022/03/10 03:28:24;0.00;0.00;0.62;0.00;0.00;0.62;5.30;4.30;;;23.10;18.50;;;;;;2254272;61;20355;-62
2022/03/10 03:31:09;0.00;0.00;0.62;0.00;0.00;0.62;9.17;5.50;;;23.10;18.50;;;;;;2253423;61;20364;-64
2022/03/10 03:33:54;0.00;0.00;0.62;0.00;0.00;0.62;5.90;5.07;;;23.10;18.50;;;;;;2254245;61;20388;-67
2022/03/10 03:36:39;0.00;0.00;0.62;0.00;0.00;0.62;6.10;5.50;;;23.00;18.50;;;;;;2253884;61;20379;-63
2022/03/10 03:39:24;0.00;0.00;0.62;0.00;0.00;0.62;4.80;4.40;;;23.00;18.50;;;;;;2253254;61;20407;-62
2022/03/10 03:42:08;0.00;0.00;0.62;0.00;0.00;0.62;5.87;5.00;;;23.00;18.50;;;;;;2254153;61;20752;-63
2022/03/10 03:44:54;0.00;0.00;0.62;0.00;0.00;0.62;5.70;5.20;;;22.90;18.40;;;;;;2253715;61;20360;-64
2022/03/10 03:47:39;0.00;0.00;0.62;0.00;0.00;0.62;5.77;5.20;;;23.00;18.50;;;;;;2253958;61;20584;-62
2022/03/10 03:50:23;0.00;0.00;0.62;0.00;0.00;0.62;5.60;4.67;;;22.90;18.40;;;;;;2254298;61;20740;-62
2022/03/10 03:53:08;0.00;0.00;0.62;0.00;0.00;0.62;5.47;4.97;;;22.90;18.50;;;;;;2253358;61;20388;-63
2022/03/10 03:55:53;0.00;0.00;0.62;0.00;0.00;0.62;5.40;4.90;;;22.80;18.40;;;;;;2254026;61;20419;-65
2022/03/10 03:58:37;0.00;0.00;0.62;0.00;0.00;0.62;5.70;5.10;;;22.80;18.40;;;;;;2253839;61;20381;-64
2022/03/10 04:01:23;0.00;0.00;0.62;0.00;0.00;0.62;6.13;5.37;;;22.80;18.40;;;;;;2253442;61;20375;-63
2022/03/10 04:04:08;0.00;0.00;0.62;0.00;0.00;0.62;5.77;5.17;;;22.80;18.40;;;;;;2254255;61;20397;-64
2022/03/10 04:06:52;0.00;0.00;0.62;0.00;0.00;0.62;5.00;4.60;;;22.80;18.40;;;;;;2253738;61;20363;-65
2022/03/10 04:09:37;0.00;0.00;0.62;0.00;0.00;0.62;4.70;4.20;;;22.70;18.30;;;;;;2253610;61;20419;-64
2022/03/10 04:12:21;0.00;0.00;0.62;0.00;0.00;0.62;5.73;5.23;;;22.70;18.30;;;;;;2254021;61;20799;-66
2022/03/10 04:15:06;0.00;0.00;0.62;0.00;0.00;0.62;4.63;4.17;;;22.70;18.30;;;;;;2253530;61;20860;-62
2022/03/10 04:17:53;0.00;0.00;0.62;0.00;0.00;0.62;5.77;5.17;;;22.70;18.30;;;;;;2253880;61;20435;-62
2022/03/10 04:20:38;0.00;0.00;0.62;0.00;0.00;0.62;6.07;4.67;;;22.60;18.30;;;;;;2253663;61;20359;-63
2022/03/10 04:23:22;0.00;0.00;0.62;0.00;0.00;0.62;6.00;5.37;;;22.60;18.30;;;;;;2253401;61;20446;-65
2022/03/10 04:26:07;0.00;0.00;0.62;0.00;0.00;0.62;5.73;5.13;;;22.60;18.30;;;;;;2254233;61;20379;-64
2022/03/10 04:28:51;0.00;0.00;0.62;0.00;0.00;0.62;5.17;4.67;;;22.60;18.30;;;;;;2253695;61;20383;-65
2022/03/10 04:31:35;0.00;0.00;0.62;0.00;0.00;0.62;5.07;4.37;;;22.50;18.20;;;;;;2253525;61;20450;-61
2022/03/10 04:34:21;0.00;0.00;0.62;0.00;0.00;0.62;6.87;4.83;;;22.50;18.20;;;;;;2254021;61;20465;-64
2022/03/10 04:37:06;0.00;0.00;0.62;0.00;0.00;0.62;4.47;4.07;;;22.50;18.20;;;;;;2253367;61;20865;-65
2022/03/10 04:39:51;0.00;0.00;0.62;0.00;0.00;0.62;5.50;4.73;;;22.50;18.20;;;;;;2253872;61;20394;-66
2022/03/10 04:42:37;0.00;0.00;0.62;0.00;0.00;0.62;5.90;5.00;;;22.40;18.20;;;;;;2253572;61;20496;-66
2022/03/10 04:45:22;0.00;0.00;0.62;0.00;0.00;0.62;7.80;5.93;;;22.40;18.20;;;;;;2253556;61;20586;-64
2022/03/10 04:48:06;0.00;0.00;0.62;0.00;0.00;0.62;5.97;5.37;;;22.40;18.20;;;;;;2254100;61;20700;-63
2022/03/10 04:50:52;0.00;0.00;0.62;0.00;0.00;0.62;5.63;5.13;;;22.40;18.20;;;;;;2253527;61;20385;-63
2022/03/10 04:53:37;0.00;0.00;0.62;0.00;0.00;0.62;5.83;5.23;;;22.40;18.10;;;;;;2253223;61;20719;-66
2022/03/10 04:56:21;0.00;0.00;0.62;0.00;0.00;0.62;5.90;5.30;;;22.40;18.20;;;;;;2253992;61;20596;-62
2022/03/10 04:59:06;0.00;0.00;0.62;0.00;0.00;0.62;7.07;5.70;;;22.30;18.10;;;;;;2253563;61;20412;-62
2022/03/10 05:01:50;0.00;0.00;0.62;0.00;0.00;0.62;5.80;5.20;;;22.30;18.10;;;;;;2253593;61;20684;-60
2022/03/10 05:04:35;0.00;0.00;0.62;0.00;0.00;0.62;5.80;5.30;;;22.30;18.10;;;;;;2253989;61;20586;-66
2022/03/10 05:07:20;0.00;0.00;0.62;0.00;0.00;0.62;5.87;5.37;;;22.20;17.90;;;;;;2253704;61;20601;-63
2022/03/10 05:10:07;0.00;0.00;0.62;0.00;0.00;0.62;6.13;4.70;;;22.20;17.90;;;;;;2254069;61;20367;-64
2022/03/10 05:12:53;0.00;0.00;0.62;0.00;0.00;0.62;5.43;4.93;;;22.20;17.90;;;;;;2253345;61;20419;-63
2022/03/10 05:15:38;0.00;0.00;0.62;0.00;0.00;0.62;5.37;4.60;;;22.10;17.90;;;;;;2253361;61;20376;-61
2022/03/10 05:18:23;0.00;0.00;0.62;0.00;0.00;0.62;5.47;4.83;;;22.10;18.00;;;;;;2253865;61;20472;-62
2022/03/10 05:21:08;0.00;0.00;0.62;0.00;0.00;0.62;7.67;5.93;;;22.10;18.00;;;;;;2253461;61;20368;-65
2022/03/10 05:23:53;0.00;0.00;0.62;0.00;0.00;0.62;9.00;5.40;;;22.10;18.60;;;;;;2253741;61;20422;-63
2022/03/10 05:26:38;0.00;0.00;0.62;0.00;0.00;0.62;4.93;4.43;;;22.00;18.50;;;;;;2253834;61;20360;-64
2022/03/10 05:29:23;0.00;0.00;0.62;0.00;0.00;0.62;7.03;5.17;;;22.00;18.00;;;;;;2253044;61;20414;-60
2022/03/10 05:32:10;0.00;0.00;0.62;0.00;0.00;0.62;6.37;4.57;;;22.00;18.10;;;;;;2253525;61;20371;-61
2022/03/10 05:34:55;0.00;0.00;0.62;0.00;0.00;0.62;5.47;4.90;;;22.00;18.10;;;;;;2253256;61;20395;-62
2022/03/10 05:37:40;0.00;0.00;0.62;0.00;0.00;0.62;6.60;5.80;;;22.00;18.10;;;;;;2253199;61;20367;-63
2022/03/10 05:40:26;0.00;0.00;0.62;0.00;0.00;0.62;5.90;4.93;;;22.00;18.10;;;;;;2253786;61;20402;-64
2022/03/10 05:43:11;0.00;0.00;0.62;0.00;0.00;0.62;8.07;5.20;;;22.00;18.10;;;;;;2253424;61;20387;-63
2022/03/10 05:45:55;0.00;0.00;0.62;0.00;0.00;0.62;6.30;5.57;;;21.90;18.00;;;;;;2253142;61;20765;-62
2022/03/10 05:48:40;0.00;0.00;0.62;0.00;0.00;0.62;5.60;5.10;;;21.90;18.00;;;;;;2253953;61;20363;-61
2022/03/10 05:51:24;0.00;0.00;0.62;0.00;0.00;0.62;6.17;4.97;;;21.90;18.00;;;;;;2253221;61;20790;-64
2022/03/10 05:54:09;0.00;0.00;0.62;0.00;0.00;0.62;5.60;4.70;;;21.90;18.00;;;;;;2253333;61;20852;-65
2022/03/10 05:56:54;0.00;0.00;0.62;0.00;0.00;0.62;9.50;5.70;;;21.80;17.90;;;;;;2253524;61;20775;-61
2022/03/10 05:59:39;0.00;0.00;0.62;0.00;0.00;0.62;5.47;4.97;;;21.80;17.90;;;;;;2253239;61;20487;-63
2022/03/10 06:02:24;0.00;0.00;0.62;0.00;0.00;0.62;7.23;5.50;;;21.80;17.90;;;;;;2253652;61;20457;-65
2022/03/10 06:05:09;0.00;0.00;0.62;0.00;0.00;0.62;5.40;4.63;;;21.80;17.90;;;;;;2253513;61;20399;-62
2022/03/10 06:07:54;0.00;0.00;0.62;0.00;0.00;0.62;5.00;4.50;;;21.80;17.90;;;;;;2253031;61;20614;-66
2022/03/10 06:10:38;0.00;0.00;0.62;0.00;0.00;0.62;5.30;4.50;;;21.80;18.00;;;;;;2253900;61;20359;-65
2022/03/10 06:13:24;0.00;0.00;0.62;0.00;0.00;0.62;4.33;3.80;;;21.70;18.00;;;;;;2253046;61;20756;-63
2022/03/10 06:16:09;0.00;0.00;0.62;0.00;0.00;0.62;4.70;4.20;;;21.70;18.00;;;;;;2253524;61;20696;-67
2022/03/10 06:18:53;0.00;0.00;0.62;0.00;0.00;0.62;5.73;4.23;;;21.70;18.10;;;;;;2253415;61;20375;-62
2022/03/10 06:21:38;0.00;0.00;0.62;0.00;0.00;0.62;3.87;3.47;;;21.70;18.10;;;;;;2252953;61;20664;-63
2022/03/10 06:24:23;0.00;0.00;0.62;0.00;0.00;0.62;3.77;3.40;;;21.70;18.10;;;;;;2253819;61;20462;-61
2022/03/10 06:27:07;0.00;0.00;0.62;0.00;0.00;0.62;4.77;3.63;;;21.70;18.20;;;;;;2253558;61;20406;-65
2022/03/10 06:29:55;0.00;0.00;0.62;0.00;0.00;0.62;4.07;3.67;;;21.70;18.20;;;;;;2253100;61;20572;-61
2022/03/10 06:32:39;0.00;0.00;0.62;0.00;0.00;0.62;4.03;2.90;;;21.70;18.30;;;;;;2253693;61;20462;-64
2022/03/10 06:35:24;0.00;0.00;0.62;0.00;0.00;0.62;4.60;3.23;;;21.70;18.30;;;;;;2253158;61;20391;-65
2022/03/10 06:38:08;0.00;0.00;0.62;0.00;0.00;0.62;3.90;3.30;;;21.70;18.30;;;;;;2253398;61;20419;-62
2022/03/10 06:40:53;0.00;0.00;0.62;0.00;0.00;0.62;3.67;2.90;;;21.70;18.30;;;;;;2253706;61;20668;-66
2022/03/10 06:43:37;0.00;0.00;0.62;0.00;0.00;0.62;4.43;3.10;;;21.70;18.30;;;;;;2253310;61;20711;-65
2022/03/10 06:46:24;0.00;0.00;0.62;0.00;0.00;0.62;3.33;2.57;;;21.70;18.40;;;;;;2253828;61;20355;-65
2022/03/10 06:49:08;0.00;0.00;0.62;0.00;0.00;0.62;3.90;3.00;;;21.70;18.40;;;;;;2254013;61;20464;-66
2022/03/10 06:51:53;0.00;0.00;0.62;0.00;0.00;0.62;3.17;2.83;;;21.70;18.40;;;;;;2253687;61;20395;-65
2022/03/10 06:54:38;0.00;0.00;0.62;0.00;0.00;0.62;3.73;2.87;;;21.70;18.40;;;;;;2254344;61;20411;-66
2022/03/10 06:57:23;0.00;0.00;0.62;0.00;0.00;0.62;3.10;2.80;;;21.70;18.40;;;;;;2253499;61;20359;-64
2022/03/10 07:00:09;0.00;0.00;0.62;0.00;0.00;0.62;2.90;2.30;;;21.70;18.50;;;;;;2254104;61;20407;-64
2022/03/10 07:02:55;0.00;0.00;0.62;0.00;0.00;0.62;4.17;2.57;;;21.70;18.50;;;;;;2254234;61;20383;-65
2022/03/10 07:05:40;0.00;0.00;0.62;0.00;0.00;0.62;3.50;2.40;;;21.70;18.50;;;;;;2253947;61;20464;-66
2022/03/10 07:08:24;0.00;0.00;0.62;0.00;0.00;0.62;2.83;2.40;;;21.70;18.50;;;;;;2254184;61;20768;-64
2022/03/10 07:11:09;0.00;0.00;0.62;0.00;0.00;0.62;3.97;2.80;;;21.70;18.50;;;;;;2253743;61;20363;-66
2022/03/10 07:13:54;0.00;0.00;0.62;0.00;0.00;0.62;3.27;2.60;;;21.70;18.50;;;;;;2253613;61;20779;-65
2022/03/10 07:16:39;0.00;0.00;0.62;0.00;0.00;0.62;2.90;2.60;;;21.70;18.50;;;;;;2254291;61;20364;-67
2022/03/10 07:19:25;0.00;0.00;0.62;0.00;0.00;0.62;2.60;2.40;;;21.70;18.60;;;;;;2253927;61;20385;-63
2022/03/10 07:22:09;0.00;0.00;0.62;0.00;0.00;0.62;2.80;2.03;;;21.70;18.60;;;;;;2253707;61;20367;-66
2022/03/10 07:24:54;0.00;0.00;0.62;0.00;0.00;0.62;4.03;2.63;;;21.70;18.60;;;;;;2254260;61;20387;-64
2022/03/10 07:27:39;0.00;0.00;0.62;0.00;0.00;0.62;2.73;2.30;;;21.70;18.60;;;;;;2253585;61;20360;-67
2022/03/10 07:30:23;0.00;0.00;0.62;0.00;0.00;0.62;3.20;2.40;;;21.70;18.60;;;;;;2254104;61;20360;-64
2022/03/10 07:33:08;0.00;0.00;0.62;0.00;0.00;0.62;2.67;1.80;;;21.70;18.60;;;;;;2253734;61;20383;-67
2022/03/10 07:35:54;0.00;0.00;0.62;0.00;0.00;0.62;2.60;2.40;;;21.70;18.60;;;;;;2253853;61;20384;-66
2022/03/10 07:38:39;0.00;0.00;0.62;0.00;0.00;0.62;2.90;2.37;;;21.80;18.80;;;;;;2254352;61;20460;-65
2022/03/10 07:41:24;0.00;0.00;0.62;0.00;0.00;0.62;2.27;1.97;;;21.80;18.80;;;;;;2253900;61;20379;-59
2022/03/10 07:44:09;0.00;0.00;0.62;0.00;0.00;0.62;2.00;1.67;;;21.80;18.80;;;;;;2253647;61;20468;-65
2022/03/10 07:46:53;0.00;0.00;0.62;0.00;0.00;0.62;2.47;2.27;;;21.80;18.80;;;;;;2254286;61;20419;-65
2022/03/10 07:49:38;0.00;0.00;0.62;0.00;0.00;0.62;2.43;2.07;;;21.80;18.80;;;;;;2253567;61;20615;-66
2022/03/10 07:52:24;0.00;0.00;0.62;0.00;0.00;0.62;2.77;2.17;;;21.80;18.80;;;;;;2253841;61;20450;-63
2022/03/10 07:55:13;0.00;0.00;0.62;0.00;0.00;0.62;2.27;1.83;;;21.80;18.80;;;;;;2253886;61;20390;-65
2022/03/10 07:57:57;0.00;0.00;0.62;0.00;0.00;0.62;3.50;2.20;;;21.80;18.80;;;;;;2253486;61;20400;-63
2022/03/10 08:00:42;0.00;0.00;0.62;0.00;0.00;0.62;2.67;2.13;;;21.80;18.80;;;;;;2254107;61;20734;-67
2022/03/10 08:03:27;0.00;0.00;0.62;0.00;0.00;0.62;2.97;1.90;;;21.80;18.80;;;;;;2253841;61;20635;-65
2022/03/10 08:06:11;0.00;0.00;0.62;0.00;0.00;0.62;2.50;2.20;;;21.90;18.90;;;;;;2253575;61;20399;-64
2022/03/10 08:08:57;0.00;0.00;0.62;0.00;0.00;0.62;2.50;2.20;;;21.90;18.90;;;;;;2254070;61;20372;-66
2022/03/10 08:11:42;0.00;0.00;0.62;0.00;0.00;0.62;2.63;2.20;;;21.90;18.90;;;;;;2253415;61;20364;-65
2022/03/10 08:14:26;0.00;0.00;0.62;0.00;0.00;0.62;3.17;2.10;;;21.90;18.90;;;;;;2253717;61;20391;-65
2022/03/10 08:17:11;0.00;0.00;0.62;0.00;0.00;0.62;3.20;2.20;;;21.90;18.90;;;;;;2253828;61;20643;-65
2022/03/10 08:19:55;0.00;0.00;0.62;0.00;0.00;0.62;2.33;1.93;;;21.90;18.90;;;;;;2253657;61;20360;-62
2022/03/10 08:22:40;0.00;0.00;0.62;0.00;0.00;0.62;2.53;1.90;;;21.90;18.90;;;;;;2254186;61;20739;-64
2022/03/10 08:25:26;0.00;0.00;0.62;0.00;0.00;0.62;2.30;1.63;;;21.90;19.00;;;;;;2253819;61;20468;-65
2022/03/10 08:28:11;0.00;0.00;0.62;0.00;0.00;0.62;2.80;2.13;;;22.00;19.00;;;;;;2253286;61;20376;-65
2022/03/10 08:30:56;0.00;0.00;0.62;0.00;0.00;0.62;1.93;1.63;;;22.00;19.00;;;;;;2254018;61;20359;-66
2022/03/10 08:33:40;0.00;0.00;0.62;0.00;0.00;0.62;2.33;1.70;;;22.00;19.00;;;;;;2253788;61;20387;-66
2022/03/10 08:36:25;0.00;0.00;0.62;0.00;0.00;0.62;3.17;1.97;;;22.00;19.00;;;;;;2253658;61;20416;-64
2022/03/10 08:39:10;0.00;0.00;0.62;0.00;0.00;0.62;2.60;2.03;;;22.00;19.00;;;;;;2254090;61;20367;-62
2022/03/10 08:41:56;0.00;0.00;0.62;0.00;0.00;0.62;2.60;1.70;;;22.00;19.00;;;;;;2253599;61;20460;-65
2022/03/10 08:44:40;0.00;0.00;0.62;0.00;0.00;0.62;3.80;2.30;;;22.00;19.10;;;;;;2253960;61;20716;-66
2022/03/10 08:47:25;0.00;0.00;0.62;0.00;0.00;0.62;2.50;1.97;;;22.00;19.10;;;;;;2253780;61;20360;-61
2022/03/10 08:50:11;0.00;0.00;0.62;0.00;0.00;0.62;2.23;1.80;;;22.00;19.10;;;;;;2253361;61;20364;-64
2022/03/10 08:52:56;0.00;0.00;0.62;0.00;0.00;0.62;1.97;1.57;;;22.10;19.10;;;;;;2253902;61;20376;-64
2022/03/10 08:55:40;0.00;0.00;0.62;0.00;0.00;0.62;1.97;1.60;;;22.10;19.20;;;;;;2253607;61;20395;-63
2022/03/10 08:58:26;0.00;0.00;0.62;0.00;0.00;0.62;2.83;2.37;;;22.10;19.20;;;;;;2253615;61;20411;-67
2022/03/10 09:01:11;0.00;0.00;0.62;0.00;0.00;0.62;2.23;1.83;;;22.10;19.20;;;;;;2253957;61;20371;-67
2022/03/10 09:03:55;0.00;0.00;0.62;0.00;0.00;0.62;2.17;1.80;;;22.10;19.20;;;;;;2253323;61;20744;-67
2022/03/10 09:06:40;0.00;0.00;0.62;0.00;0.00;0.62;2.20;1.60;;;22.20;19.30;;;;;;2253665;61;20448;-66
2022/03/10 09:09:24;0.00;0.00;0.62;0.00;0.00;0.62;1.80;1.60;;;22.20;19.30;;;;;;2253523;61;20725;-63
2022/03/10 09:12:09;0.00;0.00;0.62;0.00;0.00;0.62;2.20;1.70;;;22.20;19.30;;;;;;2253371;61;20391;-66
2022/03/10 09:14:55;0.00;0.00;0.62;0.00;0.00;0.62;2.40;1.40;;;22.20;19.30;;;;;;2253956;61;20439;-65
2022/03/10 09:17:39;0.00;0.00;0.62;0.00;0.00;0.62;2.37;1.80;;;22.20;19.30;;;;;;2253468;61;20669;-63
2022/03/10 09:20:24;0.00;0.00;0.62;0.00;0.00;0.62;2.27;1.73;;;22.20;19.30;;;;;;2253243;61;20428;-64
2022/03/10 09:23:08;0.00;0.00;0.62;0.00;0.00;0.62;2.10;1.70;;;22.30;19.40;;;;;;2253839;61;20427;-63
2022/03/10 09:25:53;0.00;0.00;0.62;0.00;0.00;0.62;2.10;1.70;;;22.30;19.40;;;;;;2253324;61;20724;-66
2022/03/10 09:28:38;0.00;0.00;0.62;0.00;0.00;0.62;2.10;1.50;;;22.30;19.40;;;;;;2253474;61;20368;-63
2022/03/10 09:31:25;0.00;0.00;0.62;0.00;0.00;0.62;2.93;1.90;;;22.30;19.40;;;;;;2253410;61;20375;-65
2022/03/10 09:34:10;0.00;0.00;0.62;0.00;0.00;0.62;2.80;2.00;;;22.30;19.40;;;;;;2253166;61;20383;-66
2022/03/10 09:36:54;0.00;0.00;0.62;0.00;0.00;0.62;1.87;1.63;;;22.30;19.40;;;;;;2253817;61;20400;-68
2022/03/10 09:39:39;0.00;0.00;0.62;0.00;0.00;0.62;2.03;1.70;;;22.40;19.50;;;;;;2253597;61;20395;-63
2022/03/10 09:42:27;0.00;0.00;0.62;0.00;0.00;0.62;2.00;1.50;;;22.40;19.50;;;;;;2253200;61;20426;-66
2022/03/10 09:45:13;0.00;0.00;0.62;0.00;0.00;0.62;1.97;1.50;;;22.40;19.50;;;;;;2253747;61;20407;-66
2022/03/10 09:47:59;0.00;0.00;0.62;0.00;0.00;0.62;2.00;1.50;;;22.40;19.50;;;;;;2253257;61;20452;-62
2022/03/10 09:50:46;0.00;0.00;0.62;0.00;0.00;0.62;2.10;1.60;;;22.50;19.60;;;;;;2253602;61;20739;-67
2022/03/10 09:53:31;0.00;0.00;0.62;0.00;0.00;0.62;2.63;2.10;;;22.50;19.60;;;;;;2253397;61;20763;-67
2022/03/10 09:56:19;0.00;0.00;0.62;0.00;0.00;0.62;2.47;2.00;;;22.50;19.60;;;;;;2253192;61;20434;-63
2022/03/10 09:59:06;0.00;0.00;0.62;0.00;0.00;0.62;2.43;1.73;;;22.50;19.60;;;;;;2253806;61;20426;-66
2022/03/10 10:01:51;0.00;0.00;0.62;0.00;0.00;0.62;2.10;1.63;;;22.50;19.60;;;;;;2253432;61;20367;-67
2022/03/10 10:04:39;0.00;0.00;0.62;0.00;0.00;0.62;2.00;1.73;;;22.60;19.80;;;;;;2253223;61;20388;-66
2022/03/10 10:07:27;0.00;0.00;0.62;0.00;0.00;0.62;2.13;1.90;;;22.60;19.80;;;;;;2253815;61;20368;-65
2022/03/10 10:10:12;0.00;0.00;0.62;0.00;0.00;0.62;2.10;1.50;;;22.70;19.80;;;;;;2253091;61;20355;-65
2022/03/10 10:12:56;0.00;0.00;0.62;0.00;0.00;0.62;2.30;1.80;;;22.70;19.80;;;;;;2253334;61;20400;-64
2022/03/10 10:15:43;0.00;0.00;0.62;0.00;0.00;0.62;2.40;1.90;;;22.70;19.80;;;;;;2253479;61;20410;-63
2022/03/10 10:18:31;0.00;0.00;0.62;0.00;0.00;0.62;2.10;1.70;;;22.70;19.90;;;;;;2253041;61;20480;-67
2022/03/10 10:21:21;0.00;0.00;0.62;0.00;0.00;0.62;2.10;1.60;;;22.80;19.90;;;;;;2253661;61;20364;-64
2022/03/10 10:24:16;0.00;0.00;0.62;0.00;0.00;0.62;2.40;1.93;;;22.80;19.90;;;;;;2254170;61;20383;-64
2022/03/10 10:27:13;0.00;0.00;0.62;0.00;0.00;0.62;2.40;1.83;;;22.80;19.90;;;;;;2253778;61;20464;-63
2022/03/10 10:30:00;0.00;0.00;0.62;0.00;0.00;0.62;1.80;1.50;;;22.80;19.90;;;;;;2254516;61;20576;-62
2022/03/10 10:32:55;0.00;0.00;0.62;0.00;0.00;0.62;3.57;2.07;;;22.90;20.00;;;;;;2253790;61;20422;-65
2022/03/10 10:35:43;0.00;0.00;0.62;0.00;0.00;0.62;3.47;2.37;;;22.90;20.00;;;;;;2254433;61;20625;-67
2022/03/10 10:38:29;0.00;0.00;0.62;0.00;0.00;0.62;2.60;1.90;;;22.90;20.00;;;;;;2254108;61;20403;-64
2022/03/10 10:41:24;0.00;0.00;0.62;0.00;0.00;0.62;2.53;1.77;;;23.00;20.00;;;;;;2253593;61;20368;-66
2022/03/10 10:44:12;0.00;0.00;0.62;0.00;0.00;0.62;2.23;1.80;;;23.00;20.10;;;;;;2254454;61;20586;-65
2022/03/10 10:46:58;0.00;0.00;0.62;0.00;0.00;0.62;2.73;2.23;;;23.10;20.10;;;;;;2254030;61;20598;-65
2022/03/10 10:49:43;0.00;0.00;0.62;0.00;0.00;0.62;2.40;1.80;;;23.10;20.10;;;;;;2253986;61;20376;-64
2022/03/10 10:52:38;0.00;0.00;0.62;0.00;0.00;0.62;1.93;1.53;;;23.10;20.70;;;;;;2254340;61;20387;-64
2022/03/10 10:55:31;0.00;0.00;0.62;0.00;0.00;0.62;2.20;1.77;;;23.10;20.20;;;;;;2253807;61;20404;-67